createdAt,value
2022-11-05T00:01:55.561Z,16.21
2022-11-05T00:04:41.016Z,16.15
2022-11-05T00:07:31.495Z,16.11
2022-11-05T00:10:07.481Z,16.03
2022-11-05T00:12:52.754Z,16.02
2022-11-05T00:15:40.801Z,16.03
2022-11-05T00:18:07.640Z,15.93
2022-11-05T00:20:34.730Z,15.91
2022-11-05T00:23:21.020Z,15.96
2022-11-05T00:25:58.609Z,15.72
2022-11-05T00:28:26.948Z,15.60
2022-11-05T00:30:54.909Z,15.52
2022-11-05T00:33:21.853Z,15.52
2022-11-05T00:35:48.712Z,15.52
2022-11-05T00:38:15.553Z,15.61
2022-11-05T00:40:42.418Z,15.51
2022-11-05T00:43:28.036Z,15.49
2022-11-05T00:45:54.946Z,15.51
2022-11-05T00:48:40.764Z,15.44
2022-11-05T00:51:08.283Z,15.51
2022-11-05T00:53:35.158Z,15.43
2022-11-05T00:56:02.698Z,15.54
2022-11-05T00:58:29.601Z,15.59
2022-11-05T01:00:58.645Z,15.65
2022-11-05T01:03:28.245Z,15.57
2022-11-05T01:06:05.635Z,15.69
2022-11-05T01:08:32.499Z,15.70
2022-11-05T01:10:59.946Z,15.65
2022-11-05T01:13:29.564Z,15.65
2022-11-05T01:15:57.316Z,15.62
2022-11-05T01:18:25.473Z,15.53
2022-11-05T01:20:52.575Z,15.43
2022-11-05T01:23:20.011Z,15.43
2022-11-05T01:25:47.246Z,15.33
2022-11-05T01:28:14.077Z,15.22
2022-11-05T01:30:40.987Z,15.26
2022-11-05T01:33:08.563Z,15.16
2022-11-05T01:35:35.895Z,15.21
2022-11-05T01:38:03.066Z,15.17
2022-11-05T01:40:29.952Z,15.13
2022-11-05T01:42:57.155Z,15.06
2022-11-05T01:45:28.499Z,15.08
2022-11-05T01:48:14.645Z,15.05
2022-11-05T01:50:50.710Z,15.13
2022-11-05T01:53:29.563Z,15.21
2022-11-05T01:56:08.786Z,15.10
2022-11-05T01:59:00.809Z,14.93
2022-11-05T02:01:28.442Z,14.96
2022-11-05T02:04:02.851Z,14.98
2022-11-05T02:06:33.113Z,14.99
2022-11-05T02:09:15.324Z,15.06
2022-11-05T02:11:42.722Z,15.12
2022-11-05T02:14:09.546Z,15.09
2022-11-05T02:16:55.765Z,15.08
2022-11-05T02:20:00.189Z,15.11
2022-11-05T02:22:45.065Z,15.13
2022-11-05T02:25:39.377Z,15.09
2022-11-05T02:28:30.437Z,15.09
2022-11-05T02:31:03.280Z,15.12
2022-11-05T02:33:42.152Z,15.09
2022-11-05T02:36:24.138Z,15.06
2022-11-05T02:39:09.993Z,15.07
2022-11-05T02:42:04.905Z,15.09
2022-11-05T02:44:35.156Z,15.08
2022-11-05T02:47:07.326Z,15.04
2022-11-05T02:49:59.157Z,15.08
2022-11-05T02:52:38.396Z,15.15
2022-11-05T02:55:36.135Z,14.94
2022-11-05T02:58:05.483Z,14.99
2022-11-05T03:00:42.379Z,14.89
2022-11-05T03:03:22.775Z,14.84
2022-11-05T03:05:55.365Z,14.84
2022-11-05T03:08:40.307Z,14.90
2022-11-05T03:11:18.990Z,14.77
2022-11-05T03:14:22.931Z,14.76
2022-11-05T03:17:15.875Z,14.82
2022-11-05T03:19:54.341Z,14.83
2022-11-05T03:22:30.314Z,14.83
2022-11-05T03:25:03.300Z,14.86
2022-11-05T03:27:34.935Z,14.86
2022-11-05T03:30:08.134Z,14.82
2022-11-05T03:32:39.244Z,14.78
2022-11-05T03:35:12.714Z,14.80
2022-11-05T03:37:43.464Z,14.85
2022-11-05T03:40:12.865Z,14.88
2022-11-05T03:42:45.540Z,14.82
2022-11-05T03:45:26.541Z,14.86
2022-11-05T03:47:57.920Z,14.83
2022-11-05T03:50:49.775Z,14.81
2022-11-05T03:53:21.850Z,14.77
2022-11-05T03:56:14.660Z,14.69
2022-11-05T03:58:45.930Z,14.59
2022-11-05T04:01:12.938Z,14.45
2022-11-05T04:03:39.787Z,14.37
2022-11-05T04:06:27.133Z,14.59
2022-11-05T04:09:12.636Z,14.59
2022-11-05T04:11:58.225Z,14.46
2022-11-05T04:14:26.374Z,14.52
2022-11-05T04:17:09.803Z,14.55
2022-11-05T04:20:00.161Z,14.58
2022-11-05T04:22:48.113Z,14.55
2022-11-05T04:25:16.410Z,14.60
2022-11-05T04:27:43.680Z,14.62
2022-11-05T04:30:20.281Z,14.46
2022-11-05T04:33:00.528Z,14.55
2022-11-05T04:35:29.651Z,14.58
2022-11-05T04:37:57.060Z,14.65
2022-11-05T04:40:24.353Z,14.63
2022-11-05T04:42:51.333Z,14.59
2022-11-05T04:45:18.168Z,14.53
2022-11-05T04:47:44.943Z,14.50
2022-11-05T04:50:13.367Z,14.47
2022-11-05T04:52:40.743Z,14.46
2022-11-05T04:55:08.306Z,14.46
2022-11-05T04:57:35.787Z,14.44
2022-11-05T05:00:02.828Z,14.39
2022-11-05T05:02:29.828Z,14.42
2022-11-05T05:04:56.676Z,14.35
2022-11-05T05:07:23.732Z,14.31
2022-11-05T05:09:50.585Z,14.34
2022-11-05T05:12:17.429Z,14.41
2022-11-05T05:14:44.407Z,14.34
2022-11-05T05:17:11.216Z,14.20
2022-11-05T05:19:56.565Z,14.35
2022-11-05T05:22:23.350Z,14.36
2022-11-05T05:24:53.004Z,14.34
2022-11-05T05:27:20.591Z,14.31
2022-11-05T05:29:49.928Z,14.36
2022-11-05T05:32:17.245Z,14.37
2022-11-05T05:34:44.377Z,14.34
2022-11-05T05:37:11.181Z,14.40
2022-11-05T05:39:38.017Z,14.40
2022-11-05T05:42:04.942Z,14.36
2022-11-05T05:44:31.788Z,14.33
2022-11-05T05:46:58.646Z,14.34
2022-11-05T05:49:25.636Z,14.35
2022-11-05T05:51:52.447Z,14.32
2022-11-05T05:54:19.279Z,14.27
2022-11-05T05:56:46.345Z,14.27
2022-11-05T05:59:13.247Z,14.30
2022-11-05T06:01:40.289Z,14.32
2022-11-05T06:04:07.304Z,14.38
2022-11-05T06:06:34.088Z,14.39
2022-11-05T06:09:01.009Z,14.32
2022-11-05T06:11:28.461Z,14.36
2022-11-05T06:13:55.365Z,14.38
2022-11-05T06:16:22.146Z,14.42
2022-11-05T06:18:49.455Z,14.47
2022-11-05T06:21:17.913Z,14.53
2022-11-05T06:23:45.838Z,14.53
2022-11-05T06:26:15.949Z,14.55
2022-11-05T06:28:43.374Z,14.55
2022-11-05T06:31:11.357Z,14.54
2022-11-05T06:33:39.024Z,14.53
2022-11-05T06:36:07.344Z,14.61
2022-11-05T06:38:36.400Z,14.66
2022-11-05T06:41:09.837Z,14.58
2022-11-05T06:43:37.816Z,14.61
2022-11-05T06:46:04.909Z,14.69
2022-11-05T06:48:31.915Z,14.72
2022-11-05T06:50:59.078Z,14.77
2022-11-05T06:53:26.130Z,14.77
2022-11-05T06:55:53.110Z,14.76
2022-11-05T06:58:20.211Z,14.76
2022-11-05T07:00:47.393Z,14.82
2022-11-05T07:03:15.130Z,14.82
2022-11-05T07:05:45.454Z,14.88
2022-11-05T07:08:12.498Z,14.90
2022-11-05T07:10:39.404Z,14.88
2022-11-05T07:13:08.550Z,14.83
2022-11-05T07:15:36.803Z,14.91
2022-11-05T07:18:04.841Z,14.89
2022-11-05T07:20:34.298Z,15.02
2022-11-05T07:23:07.339Z,15.12
2022-11-05T07:25:34.856Z,15.00
2022-11-05T07:28:02.612Z,15.10
2022-11-05T07:30:30.308Z,15.13
2022-11-05T07:32:57.657Z,14.99
2022-11-05T07:35:24.935Z,14.99
2022-11-05T07:37:56.777Z,14.88
2022-11-05T07:40:26.226Z,15.05
2022-11-05T07:42:58.145Z,14.94
2022-11-05T07:45:26.402Z,15.14
2022-11-05T07:47:58.313Z,15.25
2022-11-05T07:50:28.375Z,15.39
2022-11-05T07:53:03.590Z,15.39
2022-11-05T07:55:31.069Z,15.40
2022-11-05T07:57:58.344Z,15.18
2022-11-05T08:00:26.950Z,15.23
2022-11-05T08:03:07.090Z,15.22
2022-11-05T08:05:37.143Z,15.02
2022-11-05T08:08:05.253Z,15.17
2022-11-05T08:10:32.672Z,15.08
2022-11-05T08:12:59.455Z,15.07
2022-11-05T08:15:26.354Z,15.00
2022-11-05T08:18:04.806Z,15.12
2022-11-05T08:20:32.900Z,15.09
2022-11-05T08:22:59.898Z,15.19
2022-11-05T08:25:27.255Z,15.30
2022-11-05T08:27:59.521Z,15.43
2022-11-05T08:30:26.437Z,15.52
2022-11-05T08:33:01.187Z,15.52
2022-11-05T08:35:29.419Z,15.53
2022-11-05T08:37:58.196Z,15.34
2022-11-05T08:40:26.283Z,15.47
2022-11-05T08:42:53.463Z,15.53
2022-11-05T08:45:20.285Z,15.62
2022-11-05T08:47:47.225Z,15.61
2022-11-05T08:50:14.037Z,15.74
2022-11-05T08:52:41.025Z,15.71
2022-11-05T08:55:08.216Z,15.75
2022-11-05T08:57:35.056Z,15.73
2022-11-05T09:00:01.872Z,15.81
2022-11-05T09:02:28.827Z,15.81
2022-11-05T09:04:55.654Z,15.89
2022-11-05T09:07:23.075Z,15.81
2022-11-05T09:09:50.040Z,15.90
2022-11-05T09:12:17.120Z,16.03
2022-11-05T09:14:43.922Z,15.98
2022-11-05T09:17:20.709Z,16.05
2022-11-05T09:19:47.913Z,16.01
2022-11-05T09:22:15.248Z,16.10
2022-11-05T09:24:43.556Z,16.14
2022-11-05T09:27:11.995Z,16.20
2022-11-05T09:29:39.375Z,16.33
2022-11-05T09:32:06.785Z,16.36
2022-11-05T09:34:33.666Z,16.40
2022-11-05T09:37:00.606Z,16.32
2022-11-05T09:39:27.656Z,16.50
2022-11-05T09:41:59.466Z,16.68
2022-11-05T09:44:35.885Z,16.76
2022-11-05T09:47:07.531Z,16.93
2022-11-05T09:49:44.505Z,17.04
2022-11-05T09:52:15.241Z,17.07
2022-11-05T09:54:42.145Z,17.19
2022-11-05T09:57:25.835Z,17.26
2022-11-05T09:59:57.005Z,17.42
2022-11-05T10:02:48.922Z,17.36
2022-11-05T10:05:17.259Z,17.36
2022-11-05T10:07:51.392Z,17.42
2022-11-05T10:10:58.596Z,17.52
2022-11-05T10:13:44.543Z,17.58
2022-11-05T10:16:20.597Z,17.62
2022-11-05T10:19:03.198Z,17.58
2022-11-05T10:22:04.265Z,17.65
2022-11-05T10:24:21.448Z,17.70
2022-11-05T10:26:51.830Z,17.78
2022-11-05T10:29:29.474Z,17.86
2022-11-05T10:32:01.405Z,17.86
2022-11-05T10:34:33.838Z,17.93
2022-11-05T10:37:01.061Z,17.88
2022-11-05T10:39:30.807Z,17.87
2022-11-05T10:41:57.706Z,17.95
2022-11-05T10:44:27.304Z,17.97
2022-11-05T10:47:18.656Z,17.93
2022-11-05T10:50:04.314Z,18.04
2022-11-05T10:52:37.135Z,18.12
2022-11-05T10:55:16.446Z,18.32
2022-11-05T10:57:43.754Z,18.49
2022-11-05T11:00:21.978Z,18.52
2022-11-05T11:02:52.364Z,18.56
2022-11-05T11:05:26.348Z,18.59
2022-11-05T11:08:05.207Z,18.60
2022-11-05T11:10:52.166Z,18.40
2022-11-05T11:13:25.256Z,18.54
2022-11-05T11:15:52.686Z,18.62
2022-11-05T11:18:40.401Z,18.64
2022-11-05T11:21:15.765Z,18.72
2022-11-05T11:23:53.249Z,18.70
2022-11-05T11:26:21.906Z,18.68
2022-11-05T11:29:11.846Z,18.57
2022-11-05T11:31:39.896Z,18.45
2022-11-05T11:34:26.927Z,18.32
2022-11-05T11:37:08.171Z,18.28
2022-11-05T11:39:35.939Z,18.19
2022-11-05T11:42:09.042Z,17.99
2022-11-05T11:44:45.906Z,17.74
2022-11-05T11:47:16.808Z,17.55
2022-11-05T11:50:00.756Z,17.59
2022-11-05T11:52:33.701Z,17.65
2022-11-05T11:55:12.617Z,17.47
2022-11-05T11:58:05.601Z,17.41
2022-11-05T12:00:37.585Z,17.47
2022-11-05T12:03:40.114Z,17.36
2022-11-05T12:06:42.085Z,17.38
2022-11-05T12:09:11.849Z,17.38
2022-11-05T12:11:53.401Z,17.05
2022-11-05T12:14:46.964Z,17.21
2022-11-05T12:17:19.931Z,17.26
2022-11-05T12:20:04.464Z,17.18
2022-11-05T12:22:43.224Z,17.21
2022-11-05T12:25:22.065Z,17.31
2022-11-05T12:28:04.013Z,17.28
2022-11-05T12:30:49.551Z,17.30
2022-11-05T12:33:25.074Z,17.40
2022-11-05T12:36:21.206Z,17.13
2022-11-05T12:39:00.200Z,17.20
2022-11-05T12:41:30.036Z,17.11
2022-11-05T12:44:31.965Z,17.14
2022-11-05T12:47:26.288Z,16.94
2022-11-05T12:50:25.131Z,16.98
2022-11-05T12:53:13.464Z,16.37
2022-11-05T12:55:48.376Z,16.25
2022-11-05T12:58:33.486Z,16.34
2022-11-05T13:01:18.404Z,16.13
2022-11-05T13:03:55.801Z,15.85
2022-11-05T13:06:30.325Z,15.76
2022-11-05T13:09:14.648Z,15.72
2022-11-05T13:11:50.756Z,15.54
2022-11-05T13:14:29.127Z,15.24
2022-11-05T13:17:08.032Z,14.97
2022-11-05T13:19:47.396Z,15.05
2022-11-05T13:22:55.516Z,14.99
2022-11-05T13:25:25.456Z,15.00
2022-11-05T13:28:01.374Z,14.96
2022-11-05T13:30:39.677Z,14.75
2022-11-05T13:33:18.147Z,14.68
2022-11-05T13:35:47.354Z,14.85
2022-11-05T13:38:42.153Z,14.73
2022-11-05T13:41:28.616Z,14.56
2022-11-05T13:44:26.454Z,14.45
2022-11-05T13:47:05.185Z,14.18
2022-11-05T13:49:43.947Z,14.16
2022-11-05T13:52:45.305Z,14.24
2022-11-05T13:55:18.205Z,14.09
2022-11-05T13:57:57.497Z,13.94
2022-11-05T14:00:29.370Z,14.10
2022-11-05T14:02:58.136Z,13.99
2022-11-05T14:05:37.357Z,13.92
2022-11-05T14:08:21.106Z,13.72
2022-11-05T14:11:02.366Z,13.61
2022-11-05T14:13:34.232Z,13.50
2022-11-05T14:16:19.272Z,13.27
2022-11-05T14:18:48.764Z,13.24
2022-11-05T14:21:48.845Z,13.03
2022-11-05T14:24:40.369Z,12.96
2022-11-05T14:27:07.186Z,13.03
2022-11-05T14:29:45.877Z,13.01
2022-11-05T14:32:21.278Z,13.04
2022-11-05T14:34:56.135Z,12.88
2022-11-05T14:37:44.696Z,12.79
2022-11-05T14:40:32.826Z,12.62
2022-11-05T14:43:03.174Z,12.73
2022-11-05T14:45:29.949Z,12.83
2022-11-05T14:48:06.016Z,12.67
2022-11-05T14:50:43.078Z,12.47
2022-11-05T14:53:37.051Z,12.50
2022-11-05T14:56:03.786Z,12.44
2022-11-05T14:58:35.552Z,12.43
2022-11-05T15:01:05.570Z,12.26
2022-11-05T15:03:45.439Z,12.15
2022-11-05T15:06:21.677Z,12.12
2022-11-05T15:08:48.411Z,12.19
2022-11-05T15:11:33.705Z,12.25
2022-11-05T15:14:07.706Z,12.17
2022-11-05T15:16:43.736Z,12.11
2022-11-05T15:19:37.737Z,11.94
2022-11-05T15:22:17.964Z,11.92
2022-11-05T15:24:44.744Z,11.85
2022-11-05T15:27:45.388Z,11.81
2022-11-05T15:30:17.381Z,11.80
2022-11-05T15:32:44.339Z,11.73
2022-11-05T15:35:22.307Z,11.69
2022-11-05T15:37:54.614Z,11.62
2022-11-05T15:40:26.424Z,11.64
2022-11-05T15:43:21.336Z,11.55
2022-11-05T15:46:14.281Z,11.50
2022-11-05T15:48:44.720Z,11.54
2022-11-05T15:51:12.609Z,11.72
2022-11-05T15:54:08.812Z,11.69
2022-11-05T15:56:47.346Z,11.62
2022-11-05T15:59:20.019Z,11.68
2022-11-05T16:01:56.696Z,11.62
2022-11-05T16:04:27.621Z,11.65
2022-11-05T16:06:58.138Z,11.54
2022-11-05T16:09:26.245Z,11.63
2022-11-05T16:12:27.856Z,11.63
2022-11-05T16:14:58.573Z,11.64
2022-11-05T16:17:28.040Z,11.41
2022-11-05T16:19:55.296Z,11.59
2022-11-05T16:22:22.776Z,11.60
2022-11-05T16:24:49.891Z,11.54
2022-11-05T16:27:19.961Z,11.63
2022-11-05T16:29:54.128Z,11.59
2022-11-05T16:32:31.340Z,11.50
2022-11-05T16:35:05.215Z,11.66
2022-11-05T16:37:39.920Z,11.67
2022-11-05T16:40:18.009Z,11.75
2022-11-05T16:42:48.651Z,11.65
2022-11-05T16:45:18.150Z,11.66
2022-11-05T16:47:45.845Z,11.65
2022-11-05T16:50:19.217Z,11.53
2022-11-05T16:52:47.189Z,11.40
2022-11-05T16:55:15.506Z,11.35
2022-11-05T16:57:44.866Z,11.42
2022-11-05T17:00:15.937Z,11.40
2022-11-05T17:02:44.261Z,11.49
2022-11-05T17:05:24.210Z,11.41
2022-11-05T17:07:51.409Z,11.36
2022-11-05T17:10:18.927Z,11.26
2022-11-05T17:12:46.260Z,11.34
2022-11-05T17:15:24.848Z,11.32
2022-11-05T17:17:53.566Z,11.35
2022-11-05T17:20:36.494Z,11.41
2022-11-05T17:23:07.186Z,11.34
2022-11-05T17:25:34.348Z,11.34
2022-11-05T17:28:01.148Z,11.37
2022-11-05T17:30:29.119Z,11.38
2022-11-05T17:32:56.140Z,11.23
2022-11-05T17:35:23.367Z,10.94
2022-11-05T17:37:50.590Z,11.08
2022-11-05T17:40:20.057Z,11.23
2022-11-05T17:42:46.958Z,11.19
2022-11-05T17:45:13.903Z,11.15
2022-11-05T17:47:41.897Z,11.08
2022-11-05T17:50:11.558Z,11.16
2022-11-05T17:52:38.734Z,11.14
2022-11-05T17:55:08.728Z,11.12
2022-11-05T17:57:35.557Z,11.24
2022-11-05T18:00:02.328Z,11.16
2022-11-05T18:02:29.688Z,11.21
2022-11-05T18:04:56.579Z,11.23
2022-11-05T18:07:23.411Z,11.09
2022-11-05T18:09:50.276Z,11.00
2022-11-05T18:12:17.118Z,11.15
2022-11-05T18:14:43.897Z,11.17
2022-11-05T18:17:11.039Z,11.26
2022-11-05T18:19:39.009Z,11.20
2022-11-05T18:22:06.169Z,11.23
2022-11-05T18:24:33.451Z,11.28
2022-11-05T18:27:00.341Z,11.19
2022-11-05T18:29:27.147Z,11.26
2022-11-05T18:31:54.464Z,10.89
2022-11-05T18:34:21.258Z,11.01
2022-11-05T18:36:52.079Z,11.04
2022-11-05T18:39:22.120Z,11.12
2022-11-05T18:41:48.849Z,11.05
2022-11-05T18:44:16.891Z,11.05
2022-11-05T18:46:57.552Z,10.98
2022-11-05T18:49:24.790Z,11.09
2022-11-05T18:51:51.725Z,11.18
2022-11-05T18:54:18.499Z,10.95
2022-11-05T18:56:45.810Z,11.03
2022-11-05T19:02:05.513Z,10.95
2022-11-05T19:04:32.517Z,11.09
2022-11-05T19:07:04.375Z,11.07
2022-11-05T19:09:31.898Z,11.08
2022-11-05T19:11:58.898Z,11.04
2022-11-05T19:14:25.719Z,10.99
2022-11-05T19:16:52.488Z,11.06
2022-11-05T19:19:19.351Z,10.98
2022-11-05T19:21:46.169Z,10.90
2022-11-05T19:24:16.630Z,11.02
2022-11-05T19:26:44.561Z,10.96
2022-11-05T19:29:11.726Z,11.03
2022-11-05T19:31:38.909Z,11.08
2022-11-05T19:34:05.807Z,11.08
2022-11-05T19:36:33.921Z,11.10
2022-11-05T19:39:03.857Z,11.11
2022-11-05T19:41:31.148Z,11.08
2022-11-05T19:43:58.908Z,11.09
2022-11-05T19:46:26.179Z,11.08
2022-11-05T19:48:53.648Z,11.19
2022-11-05T19:51:30.614Z,11.28
2022-11-05T19:54:00.131Z,11.19
2022-11-05T19:56:30.579Z,11.05
2022-11-05T19:58:57.861Z,11.15
2022-11-05T20:01:27.145Z,11.14
2022-11-05T20:03:55.571Z,11.23
2022-11-05T20:06:28.654Z,11.29
2022-11-05T20:11:45.480Z,11.31
2022-11-05T20:14:12.351Z,11.32
2022-11-05T20:16:40.163Z,11.23
2022-11-05T20:19:10.278Z,11.19
2022-11-05T20:21:37.612Z,11.23
2022-11-05T20:24:05.257Z,11.29
2022-11-05T20:26:32.226Z,11.13
2022-11-05T20:28:59.238Z,11.09
2022-11-05T20:31:26.127Z,11.15
2022-11-05T20:33:53.830Z,11.17
2022-11-05T20:36:23.073Z,11.21
2022-11-05T20:38:55.466Z,11.21
2022-11-05T20:41:23.198Z,11.20
2022-11-05T20:43:51.008Z,11.18
2022-11-05T20:46:19.688Z,11.16
2022-11-05T20:48:46.752Z,11.15
2022-11-05T20:51:16.589Z,11.17
2022-11-05T20:53:44.005Z,11.21
2022-11-05T20:56:22.817Z,11.21
2022-11-05T20:58:50.361Z,11.33
2022-11-05T21:01:18.412Z,11.22
2022-11-05T21:03:46.589Z,11.29
2022-11-05T21:06:14.079Z,11.28
2022-11-05T21:08:40.908Z,11.26
2022-11-05T21:11:07.877Z,11.27
2022-11-05T21:13:35.977Z,11.43
2022-11-05T21:16:05.948Z,11.40
2022-11-05T21:18:35.143Z,11.34
2022-11-05T21:21:09.357Z,11.31
2022-11-05T21:23:36.248Z,11.15
2022-11-05T21:26:05.447Z,11.17
2022-11-05T21:28:32.918Z,11.23
2022-11-05T21:31:03.727Z,11.21
2022-11-05T21:33:30.685Z,11.20
2022-11-05T21:35:58.108Z,11.18
2022-11-05T21:38:25.611Z,11.23
2022-11-05T21:40:52.438Z,11.32
2022-11-05T21:43:19.259Z,11.30
2022-11-05T21:45:46.087Z,11.25
2022-11-05T21:48:15.462Z,11.30
2022-11-05T21:51:01.155Z,11.32
2022-11-05T21:53:46.644Z,11.34
2022-11-05T21:56:42.470Z,11.40
2022-11-05T21:59:31.975Z,11.31
2022-11-05T22:02:02.135Z,11.30
2022-11-05T22:04:37.364Z,11.30
2022-11-05T22:07:05.337Z,11.26
2022-11-05T22:09:32.265Z,11.15
2022-11-05T22:12:00.305Z,11.21
2022-11-05T22:14:28.467Z,11.32
2022-11-05T22:16:56.091Z,11.30
2022-11-05T22:19:23.968Z,11.25
2022-11-05T22:21:50.964Z,11.35
2022-11-05T22:24:18.843Z,11.34
2022-11-05T22:26:46.476Z,11.34
2022-11-05T22:29:22.442Z,11.33
2022-11-05T22:33:36.436Z,11.37
2022-11-05T22:36:04.255Z,11.31
2022-11-05T22:38:31.505Z,11.41
2022-11-05T22:40:58.457Z,11.41
2022-11-05T22:43:25.214Z,11.41
2022-11-05T22:45:51.996Z,11.36
2022-11-05T22:48:18.938Z,11.42
2022-11-05T22:50:45.759Z,11.35
2022-11-05T22:53:12.547Z,11.26
2022-11-05T22:55:40.095Z,11.28
2022-11-05T22:58:06.925Z,11.32
2022-11-05T23:00:36.109Z,11.28
2022-11-05T23:03:03.250Z,11.30
2022-11-05T23:05:30.187Z,11.33
2022-11-05T23:08:16.146Z,11.35
2022-11-05T23:11:01.424Z,11.34
2022-11-05T23:13:28.696Z,11.32
2022-11-05T23:16:14.380Z,11.33
2022-11-05T23:18:59.944Z,11.33
2022-11-05T23:21:45.489Z,11.34
2022-11-05T23:24:13.809Z,11.34
2022-11-05T23:26:52.893Z,11.36
2022-11-05T23:29:25.323Z,11.30
2022-11-05T23:32:11.375Z,11.23
2022-11-05T23:34:38.847Z,11.19
2022-11-05T23:37:27.009Z,11.28
2022-11-05T23:39:53.967Z,11.32
2022-11-05T23:42:39.626Z,11.34
2022-11-05T23:45:25.823Z,11.33
2022-11-05T23:48:12.191Z,11.28
2022-11-05T23:50:40.352Z,11.32
2022-11-05T23:53:08.192Z,11.27
2022-11-05T23:55:35.405Z,11.20
2022-11-05T23:58:02.364Z,11.22
